createdAt,value
2023-08-24T00:02:38.433Z,4.15
2023-08-24T00:07:42.290Z,3.30
2023-08-24T00:12:46.124Z,4.05
2023-08-24T00:17:51.490Z,4.30
2023-08-24T00:22:55.454Z,3.40
2023-08-24T00:27:59.405Z,3.62
2023-08-24T00:33:05.563Z,3.42
2023-08-24T00:38:09.448Z,4.18
2023-08-24T00:43:13.645Z,3.72
2023-08-24T00:48:19.006Z,3.85
2023-08-24T00:53:24.138Z,3.67
2023-08-24T00:58:29.155Z,4.20
2023-08-24T01:03:34.463Z,3.70
2023-08-24T01:08:38.680Z,4.10
2023-08-24T01:13:52.208Z,4.72
2023-08-24T01:19:00.347Z,4.75
2023-08-24T01:29:12.697Z,5.00
2023-08-24T01:34:16.435Z,5.62
2023-08-24T01:39:37.437Z,6.20
2023-08-24T01:44:48.154Z,6.28
2023-08-24T01:49:52.003Z,5.03
2023-08-24T01:54:55.792Z,5.15
2023-08-24T02:00:00.959Z,5.50
2023-08-24T02:05:05.085Z,5.70
2023-08-24T02:10:09.256Z,5.70
2023-08-24T02:15:14.494Z,5.62
2023-08-24T02:20:18.320Z,5.72
2023-08-24T02:25:22.066Z,5.90
2023-08-24T02:30:27.319Z,6.55
2023-08-24T02:35:31.062Z,5.43
2023-08-24T02:40:34.838Z,6.65
2023-08-24T02:45:40.133Z,6.70
2023-08-24T02:50:48.597Z,7.72
2023-08-24T02:55:52.308Z,7.82
2023-08-24T03:00:57.742Z,7.25
2023-08-24T03:06:03.751Z,7.78
2023-08-24T03:11:07.523Z,8.10
2023-08-24T03:16:12.889Z,8.73
2023-08-24T03:21:16.863Z,8.45
2023-08-24T03:26:24.182Z,9.40
2023-08-24T03:31:32.246Z,9.10
2023-08-24T03:36:36.520Z,9.00
2023-08-24T03:41:40.255Z,9.10
2023-08-24T03:46:45.417Z,9.93
2023-08-24T03:51:49.505Z,9.50
2023-08-24T03:56:54.233Z,9.27
2023-08-24T04:02:02.828Z,10.15
2023-08-24T04:07:06.765Z,9.07
2023-08-24T04:12:10.865Z,11.07
2023-08-24T04:17:15.989Z,9.70
2023-08-24T04:22:19.757Z,10.60
2023-08-24T04:27:23.908Z,10.38
2023-08-24T04:32:29.203Z,11.48
2023-08-24T04:37:33.082Z,11.50
2023-08-24T04:42:36.877Z,10.82
2023-08-24T04:47:42.065Z,10.65
2023-08-24T04:52:46.037Z,13.13
2023-08-24T04:57:49.810Z,11.65
2023-08-24T05:02:54.976Z,13.02
2023-08-24T05:07:58.834Z,13.18
2023-08-24T05:13:02.660Z,13.75
2023-08-24T05:18:08.271Z,14.23
2023-08-24T05:23:12.118Z,15.18
2023-08-24T05:28:16.436Z,15.32
2023-08-24T05:33:21.822Z,15.13
2023-08-24T05:38:25.906Z,17.17
2023-08-24T05:43:29.792Z,20.15
2023-08-24T05:48:34.969Z,18.30
2023-08-24T05:53:39.501Z,16.95
2023-08-24T05:58:43.252Z,19.10
2023-08-24T06:03:48.467Z,18.30
2023-08-24T06:08:52.315Z,17.30
2023-08-24T06:13:56.128Z,17.60
2023-08-24T06:19:01.298Z,16.80
2023-08-24T06:24:05.682Z,15.98
2023-08-24T06:29:09.590Z,16.02
2023-08-24T06:34:14.754Z,14.75
2023-08-24T06:39:18.665Z,15.35
2023-08-24T06:44:22.527Z,14.38
2023-08-24T06:49:28.062Z,15.57
2023-08-24T06:54:31.832Z,14.57
2023-08-24T06:59:35.866Z,15.52
2023-08-24T07:04:41.810Z,15.25
2023-08-24T07:09:45.636Z,13.95
2023-08-24T07:14:49.448Z,14.32
2023-08-24T07:19:54.594Z,13.15
2023-08-24T07:24:58.646Z,12.02
2023-08-24T07:30:07.917Z,11.52
2023-08-24T07:35:17.649Z,11.73
2023-08-24T07:40:21.573Z,11.77
2023-08-24T07:45:25.701Z,11.90
2023-08-24T07:50:31.968Z,11.40
2023-08-24T07:55:35.780Z,10.88
2023-08-24T08:00:40.185Z,10.52
2023-08-24T08:05:45.357Z,11.55
2023-08-24T08:10:49.411Z,11.30
2023-08-24T08:15:53.352Z,10.20
2023-08-24T08:20:58.693Z,10.27
2023-08-24T08:26:02.566Z,11.55
2023-08-24T08:31:07.197Z,11.43
2023-08-24T08:36:12.464Z,10.80
2023-08-24T08:41:19.336Z,10.68
2023-08-24T08:46:23.809Z,10.82
2023-08-24T08:51:29.442Z,10.20
2023-08-24T08:56:34.451Z,10.23
2023-08-24T09:01:39.725Z,8.65
2023-08-24T09:06:45.839Z,10.32
2023-08-24T09:11:50.096Z,8.82
2023-08-24T09:16:54.038Z,7.72
2023-08-24T09:22:00.997Z,7.55
2023-08-24T09:27:17.448Z,8.55
2023-08-24T09:32:25.460Z,8.88
2023-08-24T09:37:33.849Z,9.60
2023-08-24T09:42:42.446Z,8.30
2023-08-24T09:47:52.512Z,9.27
2023-08-24T09:53:04.162Z,8.50
2023-08-24T09:58:11.713Z,10.40
2023-08-24T10:03:20.246Z,8.35
2023-08-24T10:08:29.243Z,9.23
2023-08-24T10:13:41.426Z,8.57
2023-08-24T10:18:46.670Z,8.55
2023-08-24T10:23:51.943Z,6.80
2023-08-24T10:28:55.833Z,8.95
2023-08-24T10:34:00.954Z,10.13
2023-08-24T10:39:07.715Z,10.88
2023-08-24T10:44:22.974Z,11.30
2023-08-24T10:49:31.647Z,10.23
2023-08-24T10:54:46.147Z,11.27
2023-08-24T11:00:07.846Z,12.85
2023-08-24T11:05:19.559Z,12.07
2023-08-24T11:10:25.881Z,13.52
2023-08-24T11:15:33.167Z,10.38
2023-08-24T11:20:37.269Z,11.27
2023-08-24T11:25:42.826Z,9.48
2023-08-24T11:30:47.525Z,9.35
2023-08-24T11:35:51.497Z,10.50
2023-08-24T11:40:56.817Z,9.68
2023-08-24T11:46:01.445Z,8.60
2023-08-24T11:51:05.471Z,9.05
2023-08-24T11:56:13.446Z,7.80
2023-08-24T12:01:18.234Z,8.90
2023-08-24T12:06:22.099Z,7.82
2023-08-24T12:11:28.028Z,7.78
2023-08-24T12:16:34.741Z,7.30
2023-08-24T12:21:38.615Z,7.20
2023-08-24T12:26:43.946Z,6.93
2023-08-24T12:31:47.874Z,6.85
2023-08-24T12:36:54.400Z,6.07
2023-08-24T12:42:01.668Z,6.12
2023-08-24T12:47:06.258Z,5.60
2023-08-24T12:52:10.136Z,6.25
2023-08-24T12:57:15.469Z,5.78
2023-08-24T13:02:29.380Z,6.05
2023-08-24T13:07:41.406Z,5.40
2023-08-24T13:12:46.612Z,5.65
2023-08-24T13:17:50.700Z,5.18
2023-08-24T13:22:55.064Z,4.80
2023-08-24T13:28:00.154Z,4.65
2023-08-24T13:33:04.128Z,5.50
2023-08-24T13:38:07.859Z,4.12
2023-08-24T13:43:13.011Z,3.62
2023-08-24T13:48:17.197Z,3.97
2023-08-24T13:53:21.024Z,3.80
2023-08-24T13:58:26.135Z,3.58
2023-08-24T14:03:29.980Z,3.47
2023-08-24T14:08:33.809Z,3.87
2023-08-24T14:13:38.948Z,4.07
2023-08-24T14:18:42.818Z,3.60
2023-08-24T14:23:46.659Z,2.85
2023-08-24T14:28:54.752Z,3.12
2023-08-24T14:33:58.870Z,3.15
2023-08-24T14:39:02.766Z,3.10
2023-08-24T14:44:08.047Z,2.65
2023-08-24T14:49:11.973Z,3.37
2023-08-24T14:54:16.164Z,2.10
2023-08-24T14:59:21.463Z,2.00
2023-08-24T15:04:25.268Z,2.45
2023-08-24T15:09:29.012Z,2.10
2023-08-24T15:14:34.208Z,2.30
2023-08-24T15:19:37.949Z,2.08
2023-08-24T15:24:43.127Z,2.15
2023-08-24T15:29:48.291Z,2.00
2023-08-24T15:34:54.568Z,2.30
2023-08-24T15:39:58.870Z,1.85
2023-08-24T15:45:04.434Z,2.05
2023-08-24T15:50:08.876Z,2.78
2023-08-24T15:55:12.624Z,1.58
2023-08-24T16:00:18.134Z,2.53
2023-08-24T16:05:22.043Z,1.90
2023-08-24T16:10:26.348Z,1.83
2023-08-24T16:15:31.559Z,1.60
2023-08-24T16:20:35.490Z,1.75
2023-08-24T16:25:39.275Z,1.67
2023-08-24T16:30:49.289Z,1.67
2023-08-24T16:35:53.275Z,1.60
2023-08-24T16:40:57.250Z,1.70
2023-08-24T16:46:02.724Z,1.90
2023-08-24T16:51:07.493Z,1.70
2023-08-24T16:56:12.065Z,1.70
2023-08-24T17:01:17.372Z,1.75
2023-08-24T17:06:21.292Z,1.62
2023-08-24T17:11:25.623Z,1.73
2023-08-24T17:16:30.846Z,1.70
2023-08-24T17:21:34.675Z,1.77
2023-08-24T17:26:39.214Z,1.77
2023-08-24T17:31:44.858Z,1.83
2023-08-24T17:36:48.576Z,1.70
2023-08-24T17:41:52.327Z,2.08
2023-08-24T17:46:57.436Z,1.95
2023-08-24T17:52:01.205Z,1.90
2023-08-24T17:57:05.128Z,1.67
2023-08-24T18:02:10.257Z,1.80
2023-08-24T18:07:14.065Z,2.10
2023-08-24T18:12:17.800Z,1.67
2023-08-24T18:17:22.916Z,2.05
2023-08-24T18:22:26.677Z,2.28
2023-08-24T18:27:30.415Z,2.22
2023-08-24T18:32:35.520Z,2.00
2023-08-24T18:37:39.384Z,2.45
2023-08-24T18:42:43.120Z,2.08
2023-08-24T18:47:48.319Z,2.40
2023-08-24T18:52:52.114Z,2.90
2023-08-24T18:57:57.349Z,2.50
2023-08-24T19:03:02.586Z,3.58
2023-08-24T19:08:06.539Z,3.47
2023-08-24T19:13:10.280Z,2.50
2023-08-24T19:18:15.472Z,3.03
2023-08-24T19:23:19.313Z,3.55
2023-08-24T19:28:23.052Z,3.10
2023-08-24T19:33:28.230Z,4.55
2023-08-24T19:38:32.001Z,3.90
2023-08-24T19:43:35.772Z,3.53
2023-08-24T19:48:41.093Z,3.47
2023-08-24T19:53:44.845Z,4.10
2023-08-24T19:58:48.640Z,3.45
2023-08-24T20:03:53.744Z,3.87
2023-08-24T20:08:57.744Z,4.22
2023-08-24T20:14:01.536Z,4.10
2023-08-24T20:19:06.684Z,3.72
2023-08-24T20:24:10.521Z,3.90
2023-08-24T20:29:14.283Z,3.90
2023-08-24T20:34:19.407Z,4.55
2023-08-24T20:39:23.155Z,4.45
2023-08-24T20:44:26.899Z,4.75
2023-08-24T20:49:32.066Z,4.57
2023-08-24T20:54:35.802Z,4.75
2023-08-24T20:59:39.663Z,5.72
2023-08-24T21:04:45.663Z,5.93
2023-08-24T21:09:49.426Z,7.60
2023-08-24T21:14:53.356Z,7.28
2023-08-24T21:19:59.066Z,7.47
2023-08-24T21:25:04.037Z,7.85
2023-08-24T21:30:09.484Z,8.43
2023-08-24T21:35:14.859Z,8.52
2023-08-24T21:40:23.347Z,10.10
2023-08-24T21:45:27.286Z,10.75
2023-08-24T21:50:35.711Z,10.45
2023-08-24T21:55:39.581Z,10.98
2023-08-24T22:00:43.594Z,9.60
2023-08-24T22:05:48.706Z,10.15
2023-08-24T22:10:52.771Z,10.90
2023-08-24T22:15:57.511Z,10.48
2023-08-24T22:21:02.730Z,10.48
2023-08-24T22:26:06.533Z,9.38
2023-08-24T22:31:11.095Z,9.70
2023-08-24T22:36:16.264Z,10.20
2023-08-24T22:41:20.002Z,9.77
2023-08-24T22:46:23.783Z,11.77
2023-08-24T22:51:29.410Z,10.20
2023-08-24T22:56:33.252Z,10.85
2023-08-24T23:01:37.650Z,10.98
2023-08-24T23:06:49.732Z,13.15
2023-08-24T23:11:54.334Z,13.30
2023-08-24T23:16:58.353Z,15.30
2023-08-24T23:22:03.589Z,13.95
2023-08-24T23:27:07.480Z,16.40
2023-08-24T23:32:11.340Z,14.87
2023-08-24T23:37:16.697Z,16.15
2023-08-24T23:42:22.828Z,16.45
2023-08-24T23:47:26.654Z,17.65
2023-08-24T23:52:31.983Z,15.68
2023-08-24T23:57:35.882Z,16.17
